Time;durP1;ratioP1;P1;durP2;ratioP2;P2;SDS_P1;SDS_P2;PMS_P1;PMS_P2;Temp;Humidity;BMP_temperature;BMP_pressure;BME280_temperature;BME280_humidity;BME280_pressure;Samples;Min_cycle;Max_cycle;Signal;HPM_P1;HPM_P2
2023/03/01 00:01:24;;;;;;;8.43;4.57;;;;;;;;;;5053249;28;20033;-77
2023/03/01 00:03:50;;;;;;;6.93;4.18;;;;;;;;;;5042869;28;20024;-77
2023/03/01 00:06:17;;;;;;;8.90;4.20;;;;;;;;;;5043389;28;20025;-77
2023/03/01 00:08:42;;;;;;;7.60;4.57;;;;;;;;;;5042029;28;20033;-78
2023/03/01 00:11:10;;;;;;;7.68;4.13;;;;;;;;;;5048445;28;20104;-78
2023/03/01 00:13:35;;;;;;;7.25;4.10;;;;;;;;;;5046220;28;20111;-78
2023/03/01 00:16:11;;;;;;;6.35;3.72;;;;;;;;;;5048824;28;20040;-77
2023/03/01 00:18:36;;;;;;;7.43;4.25;;;;;;;;;;5030860;28;20051;-77
2023/03/01 00:21:02;;;;;;;6.30;3.80;;;;;;;;;;5051693;28;20036;-77
2023/03/01 00:23:28;;;;;;;7.95;3.97;;;;;;;;;;5048471;28;20516;-77
2023/03/01 00:25:53;;;;;;;7.40;4.40;;;;;;;;;;5033384;28;20086;-77
2023/03/01 00:28:19;;;;;;;8.27;4.38;;;;;;;;;;5037757;28;20029;-77
2023/03/01 00:30:45;;;;;;;7.70;4.03;;;;;;;;;;5034108;28;20029;-77
2023/03/01 00:33:11;;;;;;;6.97;3.80;;;;;;;;;;5034866;28;20040;-77
2023/03/01 00:35:37;;;;;;;7.00;3.83;;;;;;;;;;5034720;28;20028;-77
2023/03/01 00:38:03;;;;;;;8.00;4.30;;;;;;;;;;5035768;28;20481;-77
2023/03/01 00:40:30;;;;;;;7.25;3.80;;;;;;;;;;5030323;28;20025;-77
2023/03/01 00:42:56;;;;;;;7.30;4.30;;;;;;;;;;5048499;28;20121;-77
2023/03/01 00:45:21;;;;;;;8.23;4.63;;;;;;;;;;5048366;28;20063;-77
2023/03/01 00:47:48;;;;;;;7.57;3.88;;;;;;;;;;5048516;28;20032;-77
2023/03/01 00:50:14;;;;;;;7.57;4.60;;;;;;;;;;5030495;28;22339;-77
2023/03/01 00:52:39;;;;;;;7.90;4.07;;;;;;;;;;5031852;28;20028;-78
2023/03/01 00:55:05;;;;;;;8.68;4.47;;;;;;;;;;5048976;28;20033;-77
2023/03/01 00:57:31;;;;;;;8.15;4.60;;;;;;;;;;5047322;28;20028;-77
2023/03/01 00:59:56;;;;;;;6.78;3.95;;;;;;;;;;5039550;28;20030;-77
2023/03/01 01:02:22;;;;;;;7.57;4.38;;;;;;;;;;5043960;28;20025;-78
2023/03/01 01:04:47;;;;;;;6.25;4.00;;;;;;;;;;5051538;28;20025;-77
2023/03/01 01:07:13;;;;;;;7.10;4.07;;;;;;;;;;5033824;28;20387;-77
2023/03/01 01:09:39;;;;;;;7.57;3.95;;;;;;;;;;5045685;28;20112;-78
2023/03/01 01:12:04;;;;;;;6.70;3.95;;;;;;;;;;5047936;28;20136;-77
2023/03/01 01:14:30;;;;;;;7.13;4.30;;;;;;;;;;5050356;28;20016;-77
2023/03/01 01:16:56;;;;;;;7.05;4.18;;;;;;;;;;5026686;28;20056;-77
2023/03/01 01:19:22;;;;;;;6.75;4.10;;;;;;;;;;5049273;28;20116;-77
2023/03/01 01:21:48;;;;;;;8.15;4.40;;;;;;;;;;5030718;28;20037;-77
2023/03/01 01:24:14;;;;;;;6.05;3.92;;;;;;;;;;5027776;28;20032;-78
2023/03/01 01:26:40;;;;;;;7.85;4.40;;;;;;;;;;5048022;28;20032;-77
2023/03/01 01:29:06;;;;;;;7.40;4.43;;;;;;;;;;5050618;28;20029;-77
2023/03/01 01:31:33;;;;;;;7.22;4.25;;;;;;;;;;5029418;28;20045;-78
2023/03/01 01:34:00;;;;;;;6.82;4.22;;;;;;;;;;5047451;28;20061;-77
2023/03/01 01:36:26;;;;;;;7.35;4.28;;;;;;;;;;5048143;28;20017;-77
2023/03/01 01:38:52;;;;;;;8.35;4.30;;;;;;;;;;5049772;28;20033;-78
2023/03/01 01:41:18;;;;;;;7.28;3.97;;;;;;;;;;5033222;28;20017;-78
2023/03/01 01:43:48;;;;;;;7.53;3.88;;;;;;;;;;5044164;28;20478;-78
2023/03/01 01:46:31;;;;;;;7.03;4.05;;;;;;;;;;5047633;28;20400;-78
2023/03/01 01:49:05;;;;;;;;;;;;;;;;;;5047682;28;20036;-77
2023/03/01 01:51:40;;;;;;;6.45;3.85;;;;;;;;;;5042554;28;19943;-77
2023/03/01 01:54:23;;;;;;;6.72;4.18;;;;;;;;;;5044081;28;20029;-78
2023/03/01 01:56:53;;;;;;;6.13;3.70;;;;;;;;;;5026685;28;20420;-77
2023/03/01 01:59:24;;;;;;;8.30;4.30;;;;;;;;;;5024726;28;20501;-78
2023/03/01 02:01:50;;;;;;;7.63;3.90;;;;;;;;;;5046785;28;20029;-77
2023/03/01 02:04:16;;;;;;;8.02;4.40;;;;;;;;;;5029448;28;20031;-77
2023/03/01 02:07:07;;;;;;;7.15;4.50;;;;;;;;;;5045380;28;20497;-78
2023/03/01 02:09:34;;;;;;;8.48;4.18;;;;;;;;;;5028281;28;20055;-78
2023/03/01 02:12:00;;;;;;;6.93;4.07;;;;;;;;;;5030787;28;20373;-77
2023/03/01 02:14:26;;;;;;;6.03;3.75;;;;;;;;;;5048460;28;20025;-78
2023/03/01 02:16:51;;;;;;;8.52;4.78;;;;;;;;;;5042396;28;20021;-77
2023/03/01 02:19:30;;;;;;;8.23;4.35;;;;;;;;;;5025299;28;20427;-77
2023/03/01 02:22:06;;;;;;;7.53;4.50;;;;;;;;;;5041087;28;20539;-78
2023/03/01 02:24:40;;;;;;;7.10;4.25;;;;;;;;;;5044584;28;20042;-77
2023/03/01 02:27:06;;;;;;;7.97;4.90;;;;;;;;;;5041162;28;20038;-78
2023/03/01 02:29:31;;;;;;;9.50;5.50;;;;;;;;;;5031236;28;20027;-78
2023/03/01 02:31:59;;;;;;;8.60;5.55;;;;;;;;;;5032949;28;20203;-77
2023/03/01 02:34:26;;;;;;;9.30;5.47;;;;;;;;;;5022224;28;20063;-77
2023/03/01 02:36:59;;;;;;;8.82;5.53;;;;;;;;;;5043467;28;20078;-77
2023/03/01 02:39:37;;;;;;;9.27;5.60;;;;;;;;;;5052822;28;20111;-77
2023/03/01 02:42:03;;;;;;;9.27;5.57;;;;;;;;;;5045508;28;20028;-78
2023/03/01 02:44:29;;;;;;;9.30;5.75;;;;;;;;;;5044241;28;20021;-77
2023/03/01 02:46:56;;;;;;;10.32;5.82;;;;;;;;;;5029523;28;20040;-78
2023/03/01 02:49:26;;;;;;;10.40;5.68;;;;;;;;;;5047764;28;20044;-78
2023/03/01 02:52:10;;;;;;;9.85;5.65;;;;;;;;;;5031492;28;20036;-78
2023/03/01 02:55:00;;;;;;;9.50;5.57;;;;;;;;;;5049690;28;20071;-78
2023/03/01 02:57:27;;;;;;;9.77;5.20;;;;;;;;;;5044350;28;20056;-77
2023/03/01 02:59:54;;;;;;;9.90;5.90;;;;;;;;;;5047504;28;20036;-78
2023/03/01 03:02:36;;;;;;;9.13;5.55;;;;;;;;;;5048050;28;20052;-77
2023/03/01 03:05:06;;;;;;;7.88;5.00;;;;;;;;;;5042757;28;20029;-77
2023/03/01 03:07:34;;;;;;;8.20;4.93;;;;;;;;;;5045654;28;20055;-77
2023/03/01 03:09:59;;;;;;;7.70;4.80;;;;;;;;;;5029063;28;20029;-78
2023/03/01 03:12:25;;;;;;;8.10;4.68;;;;;;;;;;5039681;28;20115;-77
2023/03/01 03:14:50;;;;;;;8.68;4.95;;;;;;;;;;5032220;28;20033;-77
2023/03/01 03:17:15;;;;;;;8.90;5.20;;;;;;;;;;5048490;28;20028;-77
2023/03/01 03:19:43;;;;;;;8.18;4.93;;;;;;;;;;5046414;28;20021;-77
2023/03/01 03:22:09;;;;;;;7.55;4.60;;;;;;;;;;5032493;28;20029;-77
2023/03/01 03:24:37;;;;;;;9.52;4.53;;;;;;;;;;5024182;28;20082;-77
2023/03/01 03:27:04;;;;;;;9.30;4.63;;;;;;;;;;5017082;28;20021;-77
2023/03/01 03:29:30;;;;;;;7.10;4.63;;;;;;;;;;5033138;28;20491;-77
2023/03/01 03:31:55;;;;;;;7.93;4.65;;;;;;;;;;5046264;28;20032;-77
2023/03/01 03:34:21;;;;;;;8.13;4.88;;;;;;;;;;5048750;28;20052;-77
2023/03/01 03:36:46;;;;;;;7.32;4.40;;;;;;;;;;5049386;28;20096;-77
2023/03/01 03:39:12;;;;;;;9.20;4.60;;;;;;;;;;5026304;28;20040;-77
2023/03/01 03:41:37;;;;;;;6.45;4.18;;;;;;;;;;5049217;28;20039;-77
2023/03/01 03:44:02;;;;;;;7.68;4.63;;;;;;;;;;5028952;28;20103;-77
2023/03/01 03:46:28;;;;;;;10.68;4.47;;;;;;;;;;5047099;28;20037;-77
2023/03/01 03:48:53;;;;;;;7.10;4.20;;;;;;;;;;5026426;28;20056;-77
2023/03/01 03:51:19;;;;;;;7.07;4.05;;;;;;;;;;5032490;28;20025;-78
2023/03/01 03:53:45;;;;;;;7.00;4.28;;;;;;;;;;5029871;28;20503;-78
2023/03/01 03:56:12;;;;;;;6.63;4.32;;;;;;;;;;5030160;28;20525;-77
2023/03/01 03:58:37;;;;;;;7.90;4.30;;;;;;;;;;5046034;28;20032;-77
2023/03/01 04:01:03;;;;;;;7.93;4.40;;;;;;;;;;5049765;28;20035;-77
2023/03/01 04:03:30;;;;;;;6.78;4.30;;;;;;;;;;5052241;28;20029;-77
2023/03/01 04:06:00;;;;;;;6.97;4.20;;;;;;;;;;5046059;28;20508;-78
2023/03/01 04:08:26;;;;;;;9.10;4.85;;;;;;;;;;5035305;28;20051;-78
2023/03/01 04:10:56;;;;;;;7.45;4.07;;;;;;;;;;5034133;28;20104;-78
2023/03/01 04:13:22;;;;;;;7.10;4.53;;;;;;;;;;5046796;28;20052;-78
2023/03/01 04:15:52;;;;;;;7.45;3.85;;;;;;;;;;5030614;28;20056;-77
2023/03/01 04:18:19;;;;;;;7.70;4.43;;;;;;;;;;5042661;28;20060;-78
2023/03/01 04:20:45;;;;;;;7.18;4.10;;;;;;;;;;5028836;28;20151;-77
2023/03/01 04:23:19;;;;;;;7.60;4.35;;;;;;;;;;5028103;28;20116;-77
2023/03/01 04:25:55;;;;;;;6.70;4.10;;;;;;;;;;5043841;28;20858;-78
2023/03/01 04:28:24;;;;;;;7.20;4.30;;;;;;;;;;5029765;28;20021;-77
2023/03/01 04:30:50;;;;;;;6.85;3.88;;;;;;;;;;5040108;28;20056;-77
2023/03/01 04:33:15;;;;;;;7.68;3.97;;;;;;;;;;5040600;28;20495;-78
2023/03/01 04:35:41;;;;;;;6.63;3.88;;;;;;;;;;5037743;28;20112;-78
2023/03/01 04:38:06;;;;;;;7.50;4.03;;;;;;;;;;5027135;28;20127;-77
2023/03/01 04:40:32;;;;;;;8.05;3.70;;;;;;;;;;5025255;28;20082;-77
2023/03/01 04:42:58;;;;;;;6.85;4.07;;;;;;;;;;5031839;28;20094;-78
2023/03/01 04:45:23;;;;;;;7.38;4.03;;;;;;;;;;5028669;28;20039;-78
2023/03/01 04:47:51;;;;;;;6.75;3.95;;;;;;;;;;5045106;28;20036;-78
2023/03/01 04:50:20;;;;;;;5.90;3.65;;;;;;;;;;5030819;28;20032;-78
2023/03/01 04:52:46;;;;;;;6.63;4.03;;;;;;;;;;5021232;28;20029;-78
2023/03/01 04:55:12;;;;;;;6.38;4.07;;;;;;;;;;5025105;28;20179;-77
2023/03/01 04:57:38;;;;;;;7.55;3.88;;;;;;;;;;5028985;28;20025;-78
2023/03/01 05:00:22;;;;;;;6.13;3.83;;;;;;;;;;5040635;28;20037;-78
2023/03/01 05:02:59;;;;;;;7.38;4.10;;;;;;;;;;5040356;28;20110;-78
2023/03/01 05:05:32;;;;;;;6.63;3.80;;;;;;;;;;5040392;28;20035;-78
2023/03/01 05:08:00;;;;;;;7.97;3.70;;;;;;;;;;5028848;28;20032;-78
2023/03/01 05:10:31;;;;;;;8.40;4.03;;;;;;;;;;5024285;28;20485;-78
2023/03/01 05:12:57;;;;;;;7.32;3.88;;;;;;;;;;5030316;28;20029;-78
2023/03/01 05:15:26;;;;;;;6.43;3.92;;;;;;;;;;5028191;28;20116;-77
2023/03/01 05:17:53;;;;;;;6.50;3.78;;;;;;;;;;5024924;28;20029;-78
2023/03/01 05:20:22;;;;;;;7.20;3.88;;;;;;;;;;5029324;28;20477;-77
2023/03/01 05:22:48;;;;;;;6.85;3.67;;;;;;;;;;5044134;28;20098;-78
2023/03/01 05:25:14;;;;;;;6.95;4.10;;;;;;;;;;5044940;28;20054;-78
2023/03/01 05:27:39;;;;;;;7.72;4.30;;;;;;;;;;5034626;28;20033;-78
2023/03/01 05:30:13;;;;;;;6.88;4.10;;;;;;;;;;5045307;28;20465;-78
2023/03/01 05:32:45;;;;;;;6.45;3.83;;;;;;;;;;5026361;28;20052;-78
2023/03/01 05:35:13;;;;;;;7.38;3.70;;;;;;;;;;5029530;28;20055;-78
2023/03/01 05:37:47;;;;;;;10.52;4.13;;;;;;;;;;5026275;28;20056;-77
2023/03/01 05:40:19;;;;;;;6.43;3.60;;;;;;;;;;5043292;28;20024;-78
2023/03/01 05:42:56;;;;;;;7.07;4.30;;;;;;;;;;5027817;28;20037;-78
2023/03/01 05:45:23;;;;;;;7.35;3.88;;;;;;;;;;5022089;28;20297;-77
2023/03/01 05:47:50;;;;;;;6.97;4.30;;;;;;;;;;5049917;28;20021;-78
2023/03/01 05:50:25;;;;;;;6.60;4.15;;;;;;;;;;5026267;28;20962;-78
2023/03/01 05:53:05;;;;;;;6.60;4.03;;;;;;;;;;5041594;28;20072;-78
2023/03/01 05:55:31;;;;;;;6.63;3.95;;;;;;;;;;5036523;28;20396;-77
2023/03/01 05:58:02;;;;;;;7.43;4.43;;;;;;;;;;5032076;28;20029;-77
2023/03/01 06:00:29;;;;;;;7.97;4.15;;;;;;;;;;5039124;28;20033;-78
2023/03/01 06:02:55;;;;;;;7.95;4.18;;;;;;;;;;5027935;28;20572;-78
2023/03/01 06:05:22;;;;;;;6.78;4.05;;;;;;;;;;5044018;28;20103;-78
2023/03/01 06:07:47;;;;;;;8.95;3.88;;;;;;;;;;5029895;28;20017;-78
2023/03/01 06:10:13;;;;;;;8.48;3.92;;;;;;;;;;5044325;28;20036;-78
2023/03/01 06:12:40;;;;;;;6.75;3.65;;;;;;;;;;5040782;28;20029;-78
2023/03/01 06:15:09;;;;;;;7.72;3.97;;;;;;;;;;5031020;28;20562;-78
2023/03/01 06:17:37;;;;;;;5.57;3.67;;;;;;;;;;5044881;28;20044;-78
2023/03/01 06:20:04;;;;;;;6.95;4.03;;;;;;;;;;5034180;28;20026;-77
2023/03/01 06:22:30;;;;;;;6.70;4.03;;;;;;;;;;5021564;28;20037;-78
2023/03/01 06:24:55;;;;;;;5.55;3.40;;;;;;;;;;5040376;28;20473;-78
2023/03/01 06:27:20;;;;;;;6.70;3.78;;;;;;;;;;5023683;28;20119;-78
2023/03/01 06:29:46;;;;;;;6.03;3.53;;;;;;;;;;5049604;28;20065;-78
2023/03/01 06:32:11;;;;;;;7.15;3.78;;;;;;;;;;5045864;28;20491;-78
2023/03/01 06:34:36;;;;;;;7.00;3.95;;;;;;;;;;5034492;28;20079;-78
2023/03/01 06:37:04;;;;;;;6.47;3.78;;;;;;;;;;5034644;28;20120;-78
2023/03/01 06:39:30;;;;;;;6.70;4.18;;;;;;;;;;5047533;28;20052;-78
2023/03/01 06:41:56;;;;;;;6.80;4.20;;;;;;;;;;5053202;28;20083;-78
2023/03/01 06:44:21;;;;;;;6.97;3.70;;;;;;;;;;5029977;28;20032;-78
2023/03/01 06:46:47;;;;;;;8.15;4.13;;;;;;;;;;5049594;28;20032;-78
2023/03/01 06:49:12;;;;;;;6.60;3.97;;;;;;;;;;5049868;28;20028;-78
2023/03/01 06:51:37;;;;;;;7.10;4.03;;;;;;;;;;5043726;28;20028;-78
2023/03/01 06:54:06;;;;;;;8.45;4.10;;;;;;;;;;5034302;28;20028;-78
2023/03/01 06:56:32;;;;;;;7.10;4.40;;;;;;;;;;5053187;28;20013;-78
2023/03/01 06:58:58;;;;;;;8.52;4.60;;;;;;;;;;5029994;28;20016;-78
2023/03/01 07:01:23;;;;;;;7.88;3.78;;;;;;;;;;5024042;28;20390;-78
2023/03/01 07:03:49;;;;;;;7.22;4.13;;;;;;;;;;5035299;28;20040;-78
2023/03/01 07:06:14;;;;;;;6.25;3.85;;;;;;;;;;5051836;28;20434;-78
2023/03/01 07:08:40;;;;;;;6.80;3.83;;;;;;;;;;5047578;28;20055;-78
2023/03/01 07:11:05;;;;;;;7.15;4.15;;;;;;;;;;5047790;28;20492;-78
2023/03/01 07:13:31;;;;;;;7.63;4.00;;;;;;;;;;5027776;28;20021;-78
2023/03/01 07:15:57;;;;;;;8.52;3.97;;;;;;;;;;5027019;28;20094;-78
2023/03/01 07:18:22;;;;;;;6.78;3.95;;;;;;;;;;5031643;28;20029;-78
2023/03/01 07:20:48;;;;;;;6.70;4.05;;;;;;;;;;5032866;28;20045;-78
2023/03/01 07:23:13;;;;;;;8.25;4.55;;;;;;;;;;5030351;28;20033;-78
2023/03/01 07:25:39;;;;;;;12.80;4.20;;;;;;;;;;5037766;28;20349;-78
2023/03/01 07:28:04;;;;;;;7.05;4.20;;;;;;;;;;5038831;28;20127;-78
2023/03/01 07:30:30;;;;;;;6.47;3.60;;;;;;;;;;5023746;28;20436;-78
2023/03/01 07:32:57;;;;;;;7.13;3.80;;;;;;;;;;5031754;28;20025;-78
2023/03/01 07:35:24;;;;;;;8.63;3.97;;;;;;;;;;5034296;28;20142;-78
2023/03/01 07:37:50;;;;;;;7.25;4.30;;;;;;;;;;5036032;28;20532;-78
2023/03/01 07:40:15;;;;;;;8.70;4.15;;;;;;;;;;5047623;28;20029;-78
2023/03/01 07:42:41;;;;;;;7.75;4.32;;;;;;;;;;5009765;28;20029;-78
2023/03/01 07:45:07;;;;;;;6.35;3.85;;;;;;;;;;5021723;28;20064;-78
2023/03/01 07:47:33;;;;;;;8.18;4.25;;;;;;;;;;5049953;28;20500;-78
2023/03/01 07:49:58;;;;;;;6.93;4.13;;;;;;;;;;5034927;28;20033;-78
2023/03/01 07:52:24;;;;;;;6.40;4.03;;;;;;;;;;5033319;28;20388;-78
2023/03/01 07:54:49;;;;;;;6.22;3.47;;;;;;;;;;5054690;28;20032;-78
2023/03/01 07:57:15;;;;;;;7.20;4.30;;;;;;;;;;5033798;28;20033;-78
2023/03/01 07:59:40;;;;;;;8.55;4.20;;;;;;;;;;5046125;28;20029;-78
2023/03/01 08:02:05;;;;;;;7.15;3.58;;;;;;;;;;5023455;28;20473;-78
2023/03/01 08:04:32;;;;;;;6.70;4.05;;;;;;;;;;5050451;28;20475;-78
2023/03/01 08:06:58;;;;;;;7.72;3.63;;;;;;;;;;5030810;28;20071;-78
2023/03/01 08:09:24;;;;;;;6.80;3.78;;;;;;;;;;5052833;28;20025;-78
2023/03/01 08:11:49;;;;;;;9.32;3.92;;;;;;;;;;5049293;28;20493;-78
2023/03/01 08:14:15;;;;;;;7.38;4.35;;;;;;;;;;5037315;28;20073;-78
2023/03/01 08:16:40;;;;;;;7.30;4.40;;;;;;;;;;5035912;28;20428;-78
2023/03/01 08:19:07;;;;;;;10.25;4.20;;;;;;;;;;5049993;28;20088;-78
2023/03/01 08:21:34;;;;;;;8.15;4.15;;;;;;;;;;5036952;28;20025;-78
2023/03/01 08:24:04;;;;;;;6.43;4.03;;;;;;;;;;5048808;28;20053;-78
2023/03/01 08:26:30;;;;;;;7.30;3.80;;;;;;;;;;5048803;28;20469;-78
2023/03/01 08:28:56;;;;;;;8.20;4.32;;;;;;;;;;5053255;28;20036;-78
2023/03/01 08:31:22;;;;;;;7.45;4.05;;;;;;;;;;5041735;28;20060;-78
2023/03/01 08:33:54;;;;;;;5.95;3.67;;;;;;;;;;5029055;28;20051;-78
2023/03/01 08:36:21;;;;;;;5.70;3.45;;;;;;;;;;5051998;28;22060;-77
2023/03/01 08:38:46;;;;;;;6.90;3.67;;;;;;;;;;5018439;28;20366;-78
2023/03/01 08:41:12;;;;;;;6.60;4.28;;;;;;;;;;5053804;28;20040;-78
2023/03/01 08:43:37;;;;;;;6.40;3.97;;;;;;;;;;5052511;28;20500;-77
2023/03/01 08:46:03;;;;;;;6.88;4.28;;;;;;;;;;5048986;28;20087;-78
2023/03/01 08:48:28;;;;;;;7.53;4.55;;;;;;;;;;5033127;28;20032;-77
2023/03/01 08:50:54;;;;;;;8.35;4.53;;;;;;;;;;5034792;28;20215;-77
2023/03/01 08:53:20;;;;;;;7.88;3.97;;;;;;;;;;5007509;28;20037;-77
2023/03/01 08:55:45;;;;;;;7.38;4.30;;;;;;;;;;5033459;28;20492;-77
2023/03/01 08:58:11;;;;;;;6.45;4.00;;;;;;;;;;5049636;28;20108;-77
2023/03/01 09:00:36;;;;;;;9.70;4.30;;;;;;;;;;5047216;28;20112;-78
2023/03/01 09:03:02;;;;;;;8.40;4.53;;;;;;;;;;5047834;28;20029;-77
2023/03/01 09:05:27;;;;;;;7.18;3.97;;;;;;;;;;5050921;28;20033;-77
2023/03/01 09:07:53;;;;;;;7.78;4.05;;;;;;;;;;5050899;28;20033;-78
2023/03/01 09:10:18;;;;;;;9.90;4.55;;;;;;;;;;5032605;28;20021;-77
2023/03/01 09:12:43;;;;;;;10.60;4.03;;;;;;;;;;5043617;28;20040;-77
2023/03/01 09:15:09;;;;;;;9.05;4.20;;;;;;;;;;5044885;28;20396;-78
2023/03/01 09:17:35;;;;;;;10.13;4.35;;;;;;;;;;5052781;28;20032;-77
2023/03/01 09:20:00;;;;;;;8.50;3.83;;;;;;;;;;5048563;28;20033;-77
2023/03/01 09:22:26;;;;;;;8.75;4.60;;;;;;;;;;5041844;28;20021;-78
2023/03/01 09:24:51;;;;;;;6.88;4.18;;;;;;;;;;5029463;28;20508;-78
2023/03/01 09:27:18;;;;;;;9.55;4.30;;;;;;;;;;5045484;28;20020;-78
2023/03/01 09:29:44;;;;;;;9.30;4.55;;;;;;;;;;5027311;28;20072;-78
2023/03/01 09:32:10;;;;;;;5.97;3.83;;;;;;;;;;5032415;28;20481;-78
2023/03/01 09:35:00;;;;;;;7.80;4.10;;;;;;;;;;5048005;28;20086;-78
2023/03/01 09:37:24;;;;;;;9.23;4.22;;;;;;;;;;5048306;28;20029;-78
2023/03/01 09:39:49;;;;;;;8.30;4.75;;;;;;;;;;5041716;28;20547;-78
2023/03/01 09:42:15;;;;;;;7.10;4.20;;;;;;;;;;5051702;28;20048;-77
2023/03/01 09:44:50;;;;;;;8.32;4.18;;;;;;;;;;5031210;28;20060;-78
2023/03/01 09:47:19;;;;;;;9.23;4.72;;;;;;;;;;5030936;28;20033;-77
2023/03/01 09:49:56;;;;;;;8.95;4.78;;;;;;;;;;5050882;28;20026;-77
2023/03/01 09:52:34;;;;;;;10.10;4.97;;;;;;;;;;5052532;28;20078;-77
2023/03/01 09:55:00;;;;;;;8.68;4.55;;;;;;;;;;5053457;28;20472;-77
2023/03/01 09:57:38;;;;;;;6.38;4.22;;;;;;;;;;5050060;28;20029;-77
2023/03/01 10:00:18;;;;;;;7.75;4.40;;;;;;;;;;5025715;28;20429;-78
2023/03/01 10:03:06;;;;;;;7.78;4.10;;;;;;;;;;5038046;28;20115;-77
2023/03/01 10:05:41;;;;;;;7.30;3.88;;;;;;;;;;5048211;28;20020;-77
2023/03/01 10:08:12;;;;;;;8.60;3.90;;;;;;;;;;5033515;28;20040;-77
2023/03/01 10:10:43;;;;;;;8.07;4.40;;;;;;;;;;5031114;28;20043;-78
2023/03/01 10:13:25;;;;;;;7.30;4.30;;;;;;;;;;5051165;28;20025;-77
2023/03/01 10:16:01;;;;;;;7.15;4.07;;;;;;;;;;5052161;28;20033;-77
2023/03/01 10:18:30;;;;;;;6.65;4.03;;;;;;;;;;5019040;28;20477;-77
2023/03/01 10:20:59;;;;;;;7.05;4.22;;;;;;;;;;5045175;28;20115;-78
2023/03/01 10:23:27;;;;;;;9.63;4.35;;;;;;;;;;5052623;28;20473;-77
2023/03/01 10:26:21;;;;;;;6.80;3.75;;;;;;;;;;5028291;28;20400;-78
2023/03/01 10:29:07;;;;;;;7.07;4.07;;;;;;;;;;5049440;28;20023;-77
2023/03/01 10:31:48;;;;;;;6.90;3.33;;;;;;;;;;5049129;28;20546;-78
2023/03/01 10:34:35;;;;;;;8.57;4.22;;;;;;;;;;5053097;28;20132;-77
2023/03/01 10:37:15;;;;;;;6.72;3.88;;;;;;;;;;5035549;28;20465;-77
2023/03/01 10:40:10;;;;;;;6.13;3.67;;;;;;;;;;5050819;28;20059;-77
2023/03/01 10:42:39;;;;;;;6.20;3.67;;;;;;;;;;5024734;28;20040;-77
2023/03/01 10:45:34;;;;;;;7.18;3.92;;;;;;;;;;5034898;28;20534;-78
2023/03/01 10:48:19;;;;;;;6.45;3.70;;;;;;;;;;5022777;28;20041;-77
2023/03/01 10:51:05;;;;;;;6.80;3.53;;;;;;;;;;5042703;28;20473;-78
2023/03/01 10:53:41;;;;;;;5.85;3.55;;;;;;;;;;5033077;28;20029;-78
2023/03/01 10:56:13;;;;;;;7.72;3.85;;;;;;;;;;5049390;28;20032;-77
2023/03/01 10:58:41;;;;;;;7.00;3.60;;;;;;;;;;5053673;28;20088;-77
2023/03/01 11:01:15;;;;;;;7.00;3.97;;;;;;;;;;5051050;28;20416;-77
2023/03/01 11:03:41;;;;;;;6.47;4.05;;;;;;;;;;5035345;28;20033;-77
2023/03/01 11:06:21;;;;;;;6.05;3.67;;;;;;;;;;5053372;28;20142;-77
2023/03/01 11:08:49;;;;;;;7.38;4.05;;;;;;;;;;5046575;28;20023;-78
2023/03/01 11:11:28;;;;;;;10.43;4.65;;;;;;;;;;5019137;28;20036;-77
2023/03/01 11:14:13;;;;;;;7.85;3.90;;;;;;;;;;5036000;28;20024;-77
2023/03/01 11:16:40;;;;;;;5.75;3.40;;;;;;;;;;5048149;28;20028;-77
2023/03/01 11:19:09;;;;;;;7.00;3.78;;;;;;;;;;5052189;28;20047;-77
2023/03/01 11:21:40;;;;;;;10.90;4.20;;;;;;;;;;5053384;28;20029;-77
2023/03/01 11:24:11;;;;;;;7.72;4.00;;;;;;;;;;5043466;28;20033;-78
2023/03/01 11:26:41;;;;;;;6.53;3.90;;;;;;;;;;5050622;28;20048;-78
2023/03/01 11:29:21;;;;;;;7.35;4.15;;;;;;;;;;5035116;28;20489;-77
2023/03/01 11:31:48;;;;;;;7.18;3.97;;;;;;;;;;5036277;28;20028;-77
2023/03/01 11:34:26;;;;;;;7.95;3.88;;;;;;;;;;5051749;28;20029;-78
2023/03/01 11:37:01;;;;;;;6.95;4.20;;;;;;;;;;5034419;28;20116;-77
2023/03/01 11:39:37;;;;;;;7.15;4.03;;;;;;;;;;5052480;28;20028;-78
2023/03/01 11:42:44;;;;;;;6.90;4.03;;;;;;;;;;5045422;28;20020;-77
2023/03/01 11:45:12;;;;;;;9.02;4.60;;;;;;;;;;5003897;28;20037;-77
2023/03/01 11:47:40;;;;;;;7.18;4.38;;;;;;;;;;5051597;28;20101;-77
2023/03/01 11:50:15;;;;;;;7.07;3.75;;;;;;;;;;5034220;28;20037;-77
2023/03/01 11:53:09;;;;;;;6.30;3.90;;;;;;;;;;5034477;28;20104;-77
2023/03/01 11:55:59;;;;;;;7.10;4.15;;;;;;;;;;5051705;28;20725;-77
2023/03/01 11:58:39;;;;;;;6.25;4.00;;;;;;;;;;5034396;28;20032;-77
2023/03/01 12:01:34;;;;;;;8.93;4.75;;;;;;;;;;5027785;28;20934;-79
2023/03/01 12:04:37;;;;;;;7.63;4.10;;;;;;;;;;5052226;28;20033;-77
2023/03/01 12:07:30;;;;;;;7.33;4.30;;;;;;;;;;5034724;28;20033;-77
2023/03/01 12:10:14;;;;;;;6.32;3.75;;;;;;;;;;5049937;28;20649;-77
2023/03/01 12:12:54;;;;;;;6.97;4.40;;;;;;;;;;5047432;28;20489;-77
2023/03/01 12:15:43;;;;;;;7.40;4.10;;;;;;;;;;5049924;28;20423;-77
2023/03/01 12:18:24;;;;;;;6.55;3.97;;;;;;;;;;5048395;28;20508;-77
2023/03/01 12:21:04;;;;;;;8.23;3.88;;;;;;;;;;5046316;28;20032;-77
2023/03/01 12:23:47;;;;;;;8.32;3.70;;;;;;;;;;5030776;28;20028;-77
2023/03/01 12:26:33;;;;;;;6.43;3.57;;;;;;;;;;5044985;28;20043;-77
2023/03/01 12:29:56;;;;;;;6.32;3.80;;;;;;;;;;5025021;28;20072;-77
2023/03/01 12:32:35;;;;;;;6.28;3.47;;;;;;;;;;4962304;28;20026;-77
2023/03/01 12:35:12;;;;;;;5.80;3.55;;;;;;;;;;4954360;28;20045;-77
2023/03/01 12:38:05;;;;;;;5.53;3.47;;;;;;;;;;5018826;28;20509;-77
2023/03/01 12:40:51;;;;;;;6.63;4.00;;;;;;;;;;5043824;28;20115;-76
2023/03/01 12:43:25;;;;;;;6.63;3.67;;;;;;;;;;5025694;28;20028;-77
2023/03/01 12:46:17;;;;;;;6.75;4.03;;;;;;;;;;5031703;28;20131;-77
2023/03/01 12:49:10;;;;;;;5.68;3.53;;;;;;;;;;5020268;28;20118;-78
2023/03/01 12:51:37;;;;;;;6.68;3.88;;;;;;;;;;5015596;28;20039;-77
2023/03/01 12:54:14;;;;;;;6.38;3.58;;;;;;;;;;5052057;28;20059;-77
2023/03/01 12:56:40;;;;;;;7.05;3.65;;;;;;;;;;5029785;28;20464;-77
2023/03/01 12:59:25;;;;;;;7.63;3.50;;;;;;;;;;5041961;28;20035;-77
2023/03/01 13:02:03;;;;;;;7.78;3.42;;;;;;;;;;5047710;28;20021;-77
2023/03/01 13:04:39;;;;;;;6.63;3.80;;;;;;;;;;5049717;28;20388;-77
2023/03/01 13:07:22;;;;;;;6.63;3.97;;;;;;;;;;5046849;28;20029;-76
2023/03/01 13:10:34;;;;;;;6.03;3.60;;;;;;;;;;5045487;28;20021;-77
2023/03/01 13:13:14;;;;;;;7.82;4.22;;;;;;;;;;5043736;28;21338;-77
2023/03/01 13:15:40;;;;;;;5.75;3.45;;;;;;;;;;5030670;28;20115;-77
2023/03/01 13:18:11;;;;;;;6.68;3.58;;;;;;;;;;5033156;28;20029;-77
2023/03/01 13:20:42;;;;;;;7.18;4.03;;;;;;;;;;5047016;28;20059;-77
2023/03/01 13:23:22;;;;;;;6.82;3.97;;;;;;;;;;5051757;28;20036;-80
2023/03/01 13:26:14;;;;;;;9.48;3.75;;;;;;;;;;5030418;28;20021;-80
2023/03/01 13:28:49;;;;;;;7.15;4.03;;;;;;;;;;5034698;28;20024;-80
2023/03/01 13:31:20;;;;;;;7.03;3.85;;;;;;;;;;5016560;28;20033;-80
2023/03/01 13:33:50;;;;;;;7.07;3.53;;;;;;;;;;5048459;28;20029;-79
2023/03/01 13:36:27;;;;;;;6.57;3.40;;;;;;;;;;5028373;28;20481;-78
2023/03/01 13:39:02;;;;;;;7.15;4.47;;;;;;;;;;5031363;28;20029;-79
2023/03/01 13:41:42;;;;;;;6.75;3.50;;;;;;;;;;5026254;28;20021;-80
2023/03/01 13:44:26;;;;;;;7.28;3.88;;;;;;;;;;5028718;28;20025;-79
2023/03/01 13:47:07;;;;;;;5.85;3.67;;;;;;;;;;5032824;28;20412;-80
2023/03/01 13:49:50;;;;;;;6.03;3.67;;;;;;;;;;5032479;28;20026;-79
2023/03/01 13:52:42;;;;;;;6.35;3.75;;;;;;;;;;5023971;28;20028;-80
2023/03/01 13:55:24;;;;;;;5.60;3.38;;;;;;;;;;5046242;28;20025;-79
2023/03/01 13:58:01;;;;;;;7.22;4.00;;;;;;;;;;5049287;28;20614;-79
2023/03/01 14:00:36;;;;;;;6.82;3.95;;;;;;;;;;5048900;28;20472;-79
2023/03/01 14:03:13;;;;;;;6.97;3.75;;;;;;;;;;5034524;28;20037;-79
2023/03/01 14:05:41;;;;;;;6.43;3.53;;;;;;;;;;5039614;28;20041;-78
2023/03/01 14:08:23;;;;;;;6.50;4.03;;;;;;;;;;5044756;28;20519;-79
2023/03/01 14:11:14;;;;;;;7.47;3.90;;;;;;;;;;5033903;28;20035;-79
2023/03/01 14:14:04;;;;;;;6.47;3.63;;;;;;;;;;5009321;28;20522;-78
2023/03/01 14:16:41;;;;;;;6.38;3.53;;;;;;;;;;5030444;28;20472;-78
2023/03/01 14:19:25;;;;;;;6.00;3.70;;;;;;;;;;5032300;28;20116;-79
2023/03/01 14:22:22;;;;;;;6.65;3.53;;;;;;;;;;5041799;28;20512;-79
2023/03/01 14:24:50;;;;;;;7.88;4.07;;;;;;;;;;5033171;28;20029;-78
2023/03/01 14:27:16;;;;;;;5.65;3.20;;;;;;;;;;5044519;28;20033;-78
2023/03/01 14:29:42;;;;;;;5.85;3.38;;;;;;;;;;5046080;28;20021;-78
2023/03/01 14:32:21;;;;;;;6.47;3.60;;;;;;;;;;5043080;28;20043;-79
2023/03/01 14:34:49;;;;;;;5.85;3.58;;;;;;;;;;5046462;28;20051;-79
2023/03/01 14:37:22;;;;;;;8.80;3.70;;;;;;;;;;5047837;28;20534;-79
2023/03/01 14:39:48;;;;;;;7.85;4.05;;;;;;;;;;5033085;28;20448;-79
2023/03/01 14:42:15;;;;;;;6.45;3.80;;;;;;;;;;5044588;28;20083;-78
2023/03/01 14:44:44;;;;;;;6.28;3.55;;;;;;;;;;5032825;28;20503;-78
2023/03/01 14:47:14;;;;;;;8.57;3.78;;;;;;;;;;5034537;28;20033;-79
2023/03/01 14:49:41;;;;;;;6.75;3.85;;;;;;;;;;5035466;28;20052;-78
2023/03/01 14:52:18;;;;;;;6.53;3.92;;;;;;;;;;5033998;28;20036;-79
2023/03/01 14:54:48;;;;;;;6.15;3.53;;;;;;;;;;5032888;28;20049;-79
2023/03/01 14:57:22;;;;;;;6.47;3.47;;;;;;;;;;5048337;28;20029;-79
2023/03/01 14:59:50;;;;;;;5.70;3.42;;;;;;;;;;5033357;28;20051;-79
2023/03/01 15:02:20;;;;;;;6.22;3.53;;;;;;;;;;5040844;28;20056;-78
2023/03/01 15:04:50;;;;;;;6.65;3.70;;;;;;;;;;5049029;28;20078;-79
2023/03/01 15:07:15;;;;;;;7.13;3.70;;;;;;;;;;5046685;28;20376;-79